Hovedside
METAR-TAF:

METAR-TAF

Lufthavner :

Mariehamn, Finland

Mariehamn lufthavn

breddegrad: 60-07N, lengdegrad: 019-54E, høyde over havet: 6 m

Gjeldene værobservasjon

Denne rapporten ble laget for 26 minutter siden, klokken 18:20 UTC
Vind 5 kt fra Øst-nordøst, skiftende mellom Nord og Øst
Temperatur 13°C
Luftfuktighet 94%
Trykk 1025 hPa
Sikt 10 km eller mer
Overskyet i en høyde av 900 ft

METAR: EFMA 221820Z AUTO 07005KT 010V100 9999 OVC009 13/12 Q1025

Tid: 21:46 (18:46 UTC)

Varsel

Denne rapporten ble laget for 1 time og 17 minutter siden, klokken 17:29 UTC
Varsel gyldig fra 22. klokken 18 UTC til 23. klokken 03 UTC
Vind 7 kt fra Øst-nordøst
Sikt 10 km eller mer
Overskyet i en høyde av 800 ft
Midlertidig
fra 22. klokken 18 UTC til 22. klokken 21 UTC
Brutte skyer i en høyde av 1000 ft

TAF: EFMA 221729Z 2218/2303 07007KT 9999 OVC008 TEMPO 2218/2221 BKN010

Værobservasjoner og værvarsel for over 4000 flyplasser (METAR- og TAF-rapporter).

Tilgjengelige stasjoner er representert av de røde og gule prikkene på kartet.

Hold musepekeren over prikken for å se navnet på stasjonen.

Klikk så for å se værobservasjoner og -varsler.

For å forandre kartet kan du klikke på den grønne knappen med svart kryss for å zoome inn, på den grønne knappen med strek for å zoome ut, eller på de grønne pilene for å se tilstøtende kart.


METAR-TAF: